Time;durP1;ratioP1;P1;durP2;ratioP2;P2;SDS_P1;SDS_P2;PMS_P1;PMS_P2;Temp;Humidity;BMP_temperature;BMP_pressure;BME280_temperature;BME280_humidity;BME280_pressure;Samples;Min_cycle;Max_cycle;Signal;HPM_P1;HPM_P2
2021/05/15 00:02:07;;;;;;;0.57;0.25;;;10.20;99.90;;;;;;4978674;28;20169;-85
2021/05/15 00:04:32;;;;;;;0.75;0.35;;;10.20;99.90;;;;;;4977434;28;20027;-86
2021/05/15 00:06:58;;;;;;;0.50;0.17;;;10.10;99.90;;;;;;4977862;28;20070;-86
2021/05/15 00:09:24;;;;;;;1.58;0.30;;;10.10;99.90;;;;;;4995383;28;20030;-85
2021/05/15 00:11:49;;;;;;;1.42;0.20;;;10.00;99.90;;;;;;4980118;28;20069;-85
2021/05/15 00:14:15;;;;;;;0.63;0.30;;;10.10;99.90;;;;;;4980459;28;20034;-86
2021/05/15 00:16:40;;;;;;;0.38;0.20;;;10.00;99.90;;;;;;4981457;28;20034;-86
2021/05/15 00:19:07;;;;;;;2.55;0.20;;;10.00;99.90;;;;;;4982652;28;20170;-85
2021/05/15 00:21:33;;;;;;;2.97;0.20;;;10.00;99.90;;;;;;4984713;28;20022;-84
2021/05/15 00:23:58;;;;;;;0.82;0.20;;;10.00;99.90;;;;;;4993464;28;20034;-86
2021/05/15 00:26:25;;;;;;;0.73;0.30;;;10.00;99.90;;;;;;4997827;28;20051;-87
2021/05/15 00:28:51;;;;;;;0.82;0.30;;;10.00;99.90;;;;;;4996806;28;20133;-86
2021/05/15 00:31:16;;;;;;;0.65;0.20;;;9.90;99.90;;;;;;4961950;28;20476;-86
2021/05/15 00:33:42;;;;;;;0.70;0.20;;;9.90;99.90;;;;;;4960993;28;20065;-86
2021/05/15 00:36:08;;;;;;;0.63;0.20;;;9.80;99.90;;;;;;4961549;28;20038;-87
2021/05/15 00:38:33;;;;;;;0.88;0.28;;;9.80;99.90;;;;;;4980377;28;20045;-85
2021/05/15 00:40:59;;;;;;;2.15;0.30;;;9.80;99.90;;;;;;4980056;28;20681;-85
2021/05/15 00:43:27;;;;;;;0.60;0.30;;;9.70;99.90;;;;;;4979759;28;20023;-86
2021/05/15 00:45:53;;;;;;;1.13;0.40;;;9.80;99.90;;;;;;4980911;28;20014;-86
2021/05/15 00:48:18;;;;;;;0.30;0.20;;;9.90;99.90;;;;;;4981062;28;20121;-87
2021/05/15 00:50:44;;;;;;;0.80;0.30;;;9.70;99.90;;;;;;4998676;28;20022;-86
2021/05/15 00:53:10;;;;;;;0.40;0.20;;;9.70;99.90;;;;;;4984067;28;20137;-85
2021/05/15 00:55:36;;;;;;;0.50;0.13;;;9.60;99.90;;;;;;4985310;28;20026;-85
2021/05/15 00:58:02;;;;;;;1.30;0.40;;;9.60;99.90;;;;;;4982437;28;20026;-87
2021/05/15 01:00:28;;;;;;;2.20;0.35;;;9.60;99.90;;;;;;4981814;28;20038;-87
2021/05/15 01:02:54;;;;;;;0.82;0.20;;;9.50;99.90;;;;;;4983542;28;20022;-87
2021/05/15 01:05:20;;;;;;;0.95;0.32;;;9.50;99.90;;;;;;4981544;28;20089;-86
2021/05/15 01:07:48;;;;;;;1.13;0.22;;;9.50;99.90;;;;;;4965328;28;20496;-86
2021/05/15 01:10:16;;;;;;;0.68;0.30;;;9.40;99.90;;;;;;4966162;28;20027;-87
2021/05/15 01:12:52;;;;;;;0.50;0.30;;;9.30;99.90;;;;;;4981961;28;20027;-87
2021/05/15 01:15:20;;;;;;;0.55;0.22;;;9.30;99.90;;;;;;4980650;28;20026;-86
2021/05/15 01:17:57;;;;;;;1.40;0.35;;;9.30;99.90;;;;;;5000196;28;20041;-87
2021/05/15 01:20:25;;;;;;;1.45;0.50;;;9.20;99.90;;;;;;4984570;28;20037;-87
2021/05/15 01:22:51;;;;;;;0.40;0.20;;;9.20;99.90;;;;;;4999242;28;20158;-86
2021/05/15 01:25:18;;;;;;;0.77;0.22;;;9.10;99.90;;;;;;4966437;28;20062;-87
2021/05/15 01:27:44;;;;;;;3.22;0.35;;;9.10;99.90;;;;;;4983845;28;20031;-86
2021/05/15 01:30:11;;;;;;;1.00;0.25;;;9.10;99.90;;;;;;4966801;28;20082;-87
2021/05/15 01:32:39;;;;;;;0.82;0.30;;;9.10;99.90;;;;;;4985566;28;20034;-87
2021/05/15 01:35:08;;;;;;;0.82;0.30;;;9.00;99.90;;;;;;4977895;28;20049;-85
2021/05/15 01:37:35;;;;;;;0.70;0.22;;;9.00;99.90;;;;;;5000649;28;20048;-85
2021/05/15 01:40:03;;;;;;;1.90;0.32;;;8.90;99.90;;;;;;4982233;28;20022;-85
2021/05/15 01:42:29;;;;;;;0.73;0.17;;;8.90;99.90;;;;;;4982505;28;20192;-85
2021/05/15 01:44:54;;;;;;;0.93;0.28;;;8.90;99.90;;;;;;4982706;28;20042;-86
2021/05/15 01:47:20;;;;;;;0.85;0.38;;;8.90;99.90;;;;;;4983056;28;20030;-84
2021/05/15 01:49:49;;;;;;;0.57;0.20;;;8.80;99.90;;;;;;4999082;28;20085;-84
2021/05/15 01:52:15;;;;;;;0.90;0.40;;;8.90;99.90;;;;;;4981788;28;20033;-86
2021/05/15 01:54:42;;;;;;;1.48;0.45;;;8.90;99.90;;;;;;4981659;28;20333;-85
2021/05/15 01:57:08;;;;;;;1.33;0.20;;;8.90;99.90;;;;;;4979738;28;20042;-86
2021/05/15 01:59:33;;;;;;;1.48;0.32;;;8.90;99.90;;;;;;4979668;28;20035;-84
2021/05/15 02:01:59;;;;;;;1.38;0.40;;;8.90;99.90;;;;;;4978431;28;20327;-86
2021/05/15 02:04:24;;;;;;;0.63;0.20;;;8.80;99.90;;;;;;4978976;28;20086;-86
2021/05/15 02:06:50;;;;;;;0.63;0.20;;;8.80;99.90;;;;;;4980195;28;20034;-85
2021/05/15 02:09:15;;;;;;;0.85;0.30;;;8.80;99.90;;;;;;4961924;28;20122;-87
2021/05/15 02:11:41;;;;;;;0.30;0.20;;;8.80;99.90;;;;;;4962594;28;20038;-84
2021/05/15 02:14:07;;;;;;;0.80;0.30;;;8.80;99.90;;;;;;4968671;28;20041;-85
2021/05/15 02:16:32;;;;;;;1.58;0.30;;;8.80;99.90;;;;;;4985013;28;20085;-85
2021/05/15 02:18:58;;;;;;;0.95;0.22;;;8.80;99.90;;;;;;4999565;28;20620;-87
2021/05/15 02:21:24;;;;;;;1.23;0.38;;;8.70;99.90;;;;;;4999504;28;20414;-85
2021/05/15 02:23:49;;;;;;;0.80;0.30;;;8.60;99.90;;;;;;4978197;28;20070;-86
2021/05/15 02:26:15;;;;;;;0.88;0.20;;;8.60;99.90;;;;;;4980344;28;20034;-85
2021/05/15 02:28:41;;;;;;;2.58;0.40;;;8.60;99.90;;;;;;4962324;28;20543;-85
2021/05/15 02:31:06;;;;;;;1.10;0.40;;;8.50;99.90;;;;;;4962709;28;20558;-87
2021/05/15 02:33:32;;;;;;;1.80;0.40;;;8.40;99.90;;;;;;4977359;28;20105;-84
2021/05/15 02:35:58;;;;;;;2.35;0.38;;;8.40;99.90;;;;;;4962569;28;20090;-85
2021/05/15 02:38:23;;;;;;;1.27;0.35;;;8.30;99.90;;;;;;4975313;28;20033;-84
2021/05/15 02:40:53;;;;;;;0.80;0.30;;;8.30;99.90;;;;;;4978327;28;20023;-85
2021/05/15 02:43:18;;;;;;;0.40;0.25;;;8.30;99.90;;;;;;4961367;28;20493;-85
2021/05/15 02:45:44;;;;;;;0.95;0.30;;;8.30;99.90;;;;;;4978849;28;20142;-85
2021/05/15 02:48:16;;;;;;;0.63;0.30;;;8.20;99.90;;;;;;4998266;28;20030;-84
2021/05/15 02:50:42;;;;;;;0.60;0.30;;;8.20;99.90;;;;;;4981468;28;20065;-86
2021/05/15 02:53:08;;;;;;;0.80;0.30;;;8.20;99.90;;;;;;4981144;28;20128;-84
2021/05/15 02:55:33;;;;;;;2.00;0.65;;;8.20;99.90;;;;;;4981284;28;20120;-84
2021/05/15 02:57:59;;;;;;;1.05;0.40;;;8.20;99.90;;;;;;4981380;28;20041;-85
2021/05/15 03:00:27;;;;;;;1.83;0.43;;;8.30;99.90;;;;;;4998492;28;20515;-84
2021/05/15 03:02:53;;;;;;;1.55;0.32;;;8.20;99.90;;;;;;4980688;28;20037;-85
2021/05/15 03:05:22;;;;;;;1.05;0.40;;;8.20;99.90;;;;;;4981134;28;20034;-86
2021/05/15 03:07:49;;;;;;;1.35;0.30;;;8.10;99.90;;;;;;4980685;28;20030;-86
2021/05/15 03:10:14;;;;;;;1.52;0.35;;;8.10;99.90;;;;;;4980665;28;20058;-84
2021/05/15 03:12:41;;;;;;;2.25;0.52;;;8.10;99.90;;;;;;4980606;28;20030;-84
2021/05/15 03:15:10;;;;;;;2.20;0.50;;;8.10;99.90;;;;;;4997921;28;20080;-85
2021/05/15 03:17:37;;;;;;;1.73;0.53;;;8.10;99.90;;;;;;4998551;28;20068;-84
2021/05/15 03:20:05;;;;;;;1.93;0.80;;;8.00;99.90;;;;;;4980702;28;20042;-84
2021/05/15 03:22:30;;;;;;;3.13;0.40;;;8.00;99.90;;;;;;4999373;28;20038;-83
2021/05/15 03:24:56;;;;;;;1.08;0.50;;;8.00;99.90;;;;;;4980577;28;20023;-86
2021/05/15 03:27:22;;;;;;;4.55;1.02;;;8.00;99.90;;;;;;4979638;28;20026;-84
2021/05/15 03:29:47;;;;;;;1.67;0.40;;;8.10;99.90;;;;;;4982062;28;20041;-84
2021/05/15 03:32:13;;;;;;;3.55;0.40;;;8.10;99.90;;;;;;4981855;28;20121;-84
2021/05/15 03:34:39;;;;;;;2.45;0.40;;;8.20;99.90;;;;;;4982314;28;20030;-84
2021/05/15 03:37:05;;;;;;;0.95;0.40;;;8.20;99.90;;;;;;4981299;28;20037;-85
2021/05/15 03:39:30;;;;;;;2.45;0.38;;;8.10;99.90;;;;;;4980176;28;20077;-85
2021/05/15 03:41:56;;;;;;;3.25;0.70;;;8.10;99.90;;;;;;4979746;28;20026;-84
2021/05/15 03:44:21;;;;;;;2.03;0.47;;;8.10;99.90;;;;;;4997309;28;20029;-85
2021/05/15 03:46:48;;;;;;;1.63;0.40;;;8.10;99.90;;;;;;4980221;28;20034;-85
2021/05/15 03:49:15;;;;;;;2.45;0.40;;;8.20;99.90;;;;;;4981436;28;20370;-83
2021/05/15 03:51:40;;;;;;;1.52;0.50;;;8.30;99.90;;;;;;4979892;28;20030;-84
2021/05/15 03:54:06;;;;;;;0.88;0.40;;;8.20;99.90;;;;;;4980672;28;20034;-84
2021/05/15 03:56:32;;;;;;;1.67;0.40;;;8.20;99.90;;;;;;4980126;28;20023;-84
2021/05/15 03:58:58;;;;;;;0.98;0.40;;;8.20;99.90;;;;;;4979558;28;20094;-84
2021/05/15 04:01:23;;;;;;;1.23;0.40;;;8.20;99.90;;;;;;4980788;28;20042;-84
2021/05/15 04:03:49;;;;;;;1.15;0.40;;;8.30;99.90;;;;;;4979169;28;20030;-86
2021/05/15 04:06:15;;;;;;;0.68;0.40;;;8.30;99.90;;;;;;4978825;28;20033;-86
2021/05/15 04:08:41;;;;;;;1.25;0.35;;;8.30;99.90;;;;;;4979320;28;20058;-86
2021/05/15 04:11:07;;;;;;;0.77;0.40;;;8.20;99.90;;;;;;4978929;28;20030;-85
2021/05/15 04:13:56;;;;;;;0.82;0.40;;;8.20;99.90;;;;;;4977603;28;20034;-85
2021/05/15 04:18:48;;;;;;;0.98;0.32;;;8.30;99.90;;;;;;4995556;28;20044;-85
2021/05/15 04:21:13;;;;;;;0.35;0.20;;;8.30;99.90;;;;;;4974384;28;20497;-85
2021/05/15 04:23:39;;;;;;;1.42;0.38;;;8.30;99.90;;;;;;4972853;28;20030;-85
2021/05/15 04:26:05;;;;;;;1.05;0.40;;;8.30;99.90;;;;;;4976938;28;20031;-84
2021/05/15 04:28:31;;;;;;;1.42;0.45;;;8.30;99.90;;;;;;4995203;28;20128;-84
2021/05/15 04:30:57;;;;;;;1.67;0.60;;;8.40;99.90;;;;;;4977503;28;20054;-84
2021/05/15 04:33:23;;;;;;;1.25;0.40;;;8.30;99.90;;;;;;4977037;28;20027;-84
2021/05/15 04:35:53;;;;;;;1.05;0.28;;;8.40;99.90;;;;;;4994830;28;20073;-85
2021/05/15 04:38:19;;;;;;;1.27;0.30;;;8.50;99.90;;;;;;4978214;28;20058;-84
2021/05/15 04:40:45;;;;;;;1.27;0.43;;;8.50;99.90;;;;;;4977589;28;20034;-86
2021/05/15 04:43:13;;;;;;;2.05;0.35;;;8.60;99.90;;;;;;4977149;28;20109;-84
2021/05/15 04:45:39;;;;;;;1.27;0.30;;;8.70;99.90;;;;;;4976630;28;20019;-84
2021/05/15 04:48:05;;;;;;;1.13;0.30;;;8.70;99.90;;;;;;4973739;28;20027;-84
2021/05/15 04:50:30;;;;;;;1.20;0.35;;;8.70;99.90;;;;;;4976353;28;20491;-84
2021/05/15 04:52:56;;;;;;;0.85;0.30;;;8.70;99.90;;;;;;4958729;28;20074;-85
2021/05/15 04:55:22;;;;;;;0.50;0.30;;;8.80;99.90;;;;;;4959636;28;20031;-85
2021/05/15 04:57:47;;;;;;;1.10;0.40;;;8.80;99.90;;;;;;4967226;28;20511;-86
2021/05/15 05:00:13;;;;;;;1.92;0.50;;;8.80;99.90;;;;;;4978670;28;20061;-85
2021/05/15 05:02:39;;;;;;;2.50;0.32;;;8.90;99.90;;;;;;4978619;28;20054;-85
2021/05/15 05:05:07;;;;;;;1.55;0.40;;;8.90;99.90;;;;;;4995002;28;20375;-85
2021/05/15 05:07:32;;;;;;;1.13;0.32;;;8.80;99.90;;;;;;4977121;28;20027;-86
2021/05/15 05:09:58;;;;;;;0.82;0.40;;;8.90;99.90;;;;;;4976577;28;20034;-84
2021/05/15 05:12:24;;;;;;;1.27;0.30;;;9.00;99.90;;;;;;4976364;28;20042;-85
2021/05/15 05:14:49;;;;;;;0.85;0.38;;;9.10;99.90;;;;;;4994737;28;20379;-86
2021/05/15 05:17:15;;;;;;;0.30;0.20;;;9.20;99.90;;;;;;4996219;28;20062;-86
2021/05/15 05:19:40;;;;;;;0.50;0.30;;;9.30;99.90;;;;;;4978889;28;20030;-84
2021/05/15 05:22:06;;;;;;;1.58;0.40;;;9.30;99.90;;;;;;4996090;28;20035;-84
2021/05/15 05:24:32;;;;;;;2.13;0.30;;;9.40;99.90;;;;;;4978829;28;20121;-84
2021/05/15 05:27:00;;;;;;;1.42;0.30;;;9.50;99.90;;;;;;4978078;28;20037;-84
2021/05/15 05:29:26;;;;;;;3.28;0.50;;;9.50;99.90;;;;;;4976664;28;20143;-84
2021/05/15 05:31:53;;;;;;;0.73;0.22;;;9.70;99.90;;;;;;4976428;28;20104;-84
2021/05/15 05:34:19;;;;;;;0.73;0.20;;;9.70;99.90;;;;;;4976824;28;20037;-86
2021/05/15 05:36:47;;;;;;;0.30;0.20;;;9.80;99.90;;;;;;4976487;28;20034;-85
2021/05/15 05:39:18;;;;;;;0.57;0.20;;;9.80;99.90;;;;;;4997874;28;20026;-86
2021/05/15 05:41:45;;;;;;;0.77;0.20;;;9.90;99.90;;;;;;4997521;28;20029;-84
2021/05/15 05:44:10;;;;;;;0.90;0.20;;;10.00;99.90;;;;;;4980003;28;20058;-85
2021/05/15 05:46:36;;;;;;;0.43;0.20;;;10.00;99.90;;;;;;4979402;28;20483;-86
2021/05/15 05:49:02;;;;;;;0.55;0.20;;;10.10;99.90;;;;;;4980330;28;20081;-84
2021/05/15 05:51:28;;;;;;;0.50;0.20;;;10.20;99.90;;;;;;4979437;28;20026;-87
2021/05/15 05:53:54;;;;;;;0.77;0.30;;;10.20;99.90;;;;;;4997265;28;20053;-86
2021/05/15 05:56:19;;;;;;;1.13;0.30;;;10.20;99.90;;;;;;4972267;28;20035;-86
2021/05/15 05:58:46;;;;;;;0.52;0.20;;;10.20;99.90;;;;;;4974497;28;20033;-85
2021/05/15 06:01:12;;;;;;;0.63;0.20;;;10.40;99.90;;;;;;4979325;28;20026;-85
2021/05/15 06:03:38;;;;;;;0.55;0.20;;;10.50;99.90;;;;;;4979129;28;20468;-89
2021/05/15 06:06:04;;;;;;;0.75;0.20;;;10.60;99.90;;;;;;4978931;28;20031;-86
2021/05/15 06:08:29;;;;;;;0.30;0.10;;;10.40;99.90;;;;;;4979971;28;20396;-85
2021/05/15 06:10:55;;;;;;;0.80;0.20;;;10.50;99.90;;;;;;4987386;28;20639;-86
2021/05/15 06:13:21;;;;;;;0.75;0.30;;;10.50;99.90;;;;;;4978822;28;20049;-85
2021/05/15 06:15:47;;;;;;;0.30;0.17;;;10.60;99.90;;;;;;4985582;28;20111;-86
2021/05/15 06:18:12;;;;;;;0.68;0.20;;;10.60;99.90;;;;;;4977688;28;20023;-85
2021/05/15 06:20:38;;;;;;;0.93;0.20;;;10.60;99.90;;;;;;4978796;28;20030;-86
2021/05/15 06:23:04;;;;;;;1.08;0.40;;;10.70;99.90;;;;;;4965938;28;20026;-84
2021/05/15 06:25:30;;;;;;;0.98;0.20;;;10.80;99.90;;;;;;4976477;28;20246;-84
2021/05/15 06:27:55;;;;;;;1.27;0.28;;;11.00;99.90;;;;;;4984858;28;20057;-84
2021/05/15 06:30:22;;;;;;;1.80;0.30;;;11.10;99.90;;;;;;4980726;28;20034;-86
2021/05/15 06:32:47;;;;;;;1.45;0.10;;;11.40;99.90;;;;;;4986925;28;20034;-84
2021/05/15 06:35:14;;;;;;;0.30;0.15;;;11.60;99.90;;;;;;4978373;28;20076;-85
2021/05/15 06:37:40;;;;;;;1.55;0.20;;;11.70;99.90;;;;;;4978973;28;20026;-84
2021/05/15 06:40:06;;;;;;;0.55;0.20;;;11.90;99.90;;;;;;4974528;28;20542;-84
2021/05/15 06:42:32;;;;;;;0.30;0.10;;;12.00;99.90;;;;;;4992215;28;20387;-86
2021/05/15 06:44:58;;;;;;;0.40;0.20;;;12.20;99.90;;;;;;4983925;28;20023;-85
2021/05/15 06:47:24;;;;;;;0.95;0.20;;;12.40;99.90;;;;;;4980939;28;20394;-84
2021/05/15 06:49:49;;;;;;;0.40;0.20;;;12.40;99.90;;;;;;4975859;28;20081;-89
2021/05/15 06:52:16;;;;;;;0.68;0.10;;;12.60;99.90;;;;;;4977267;28;20443;-87
2021/05/15 06:54:42;;;;;;;0.77;0.30;;;12.70;99.90;;;;;;4970084;28;20058;-84
2021/05/15 06:57:08;;;;;;;0.95;0.20;;;12.60;99.90;;;;;;4976729;28;20026;-86
2021/05/15 06:59:34;;;;;;;0.22;0.13;;;12.30;99.90;;;;;;4974512;28;20058;-85
2021/05/15 07:02:00;;;;;;;0.95;0.20;;;12.40;99.90;;;;;;4981371;28;20109;-86
2021/05/15 07:04:26;;;;;;;0.40;0.13;;;12.60;99.90;;;;;;4973406;28;20128;-84
2021/05/15 07:06:52;;;;;;;1.52;0.30;;;12.70;99.90;;;;;;4974741;28;20476;-87
2021/05/15 07:09:18;;;;;;;0.35;0.20;;;12.60;99.90;;;;;;4978092;28;20022;-85
2021/05/15 07:11:44;;;;;;;2.28;0.20;;;12.50;99.90;;;;;;4994939;28;20105;-85
2021/05/15 07:14:09;;;;;;;1.90;0.50;;;12.60;99.90;;;;;;4980656;28;20030;-84
2021/05/15 07:16:35;;;;;;;0.15;0.10;;;12.70;99.90;;;;;;4979298;28;20030;-87
2021/05/15 07:19:00;;;;;;;0.85;0.10;;;12.90;99.90;;;;;;4975234;28;20038;-85
2021/05/15 07:21:26;;;;;;;0.40;0.10;;;12.80;99.90;;;;;;5000131;28;20438;-85
2021/05/15 07:23:52;;;;;;;0.22;0.10;;;12.80;99.90;;;;;;4980953;28;20088;-84
2021/05/15 07:26:18;;;;;;;0.25;0.10;;;12.80;99.90;;;;;;4977539;28;20487;-83
2021/05/15 07:28:44;;;;;;;0.65;0.10;;;12.90;99.90;;;;;;4984232;28;20439;-83
2021/05/15 07:31:09;;;;;;;0.90;0.20;;;12.80;99.90;;;;;;4979499;28;20030;-84
2021/05/15 07:33:35;;;;;;;0.35;0.10;;;12.90;99.90;;;;;;4976403;28;20101;-85
2021/05/15 07:36:01;;;;;;;0.73;0.30;;;12.90;99.90;;;;;;4976423;28;20520;-87
2021/05/15 07:38:27;;;;;;;0.70;0.20;;;13.00;99.90;;;;;;4995790;28;20086;-84
2021/05/15 07:40:54;;;;;;;0.85;0.20;;;13.10;99.90;;;;;;4977244;28;20026;-84
2021/05/15 07:43:24;;;;;;;0.15;0.10;;;13.20;99.90;;;;;;4982714;28;20142;-84
2021/05/15 07:45:54;;;;;;;0.50;0.30;;;13.10;99.90;;;;;;4980601;28;20034;-84
2021/05/15 07:48:28;;;;;;;0.52;0.13;;;13.10;99.90;;;;;;4974603;28;20045;-85
2021/05/15 07:50:58;;;;;;;0.40;0.20;;;13.20;99.90;;;;;;4995243;28;20026;-86
2021/05/15 07:53:23;;;;;;;2.20;0.20;;;13.10;99.90;;;;;;4995012;28;20443;-86
2021/05/15 07:55:50;;;;;;;1.08;0.20;;;13.40;99.90;;;;;;4978469;28;20034;-86
2021/05/15 07:58:17;;;;;;;0.60;0.20;;;13.50;99.90;;;;;;4993715;28;20587;-86
2021/05/15 08:00:42;;;;;;;0.20;0.10;;;13.50;99.90;;;;;;4976828;28;20475;-86
2021/05/15 08:03:08;;;;;;;0.52;0.20;;;13.50;99.90;;;;;;4972946;28;20062;-86
2021/05/15 08:05:34;;;;;;;0.32;0.10;;;13.60;99.90;;;;;;4976619;28;20025;-86
2021/05/15 08:08:02;;;;;;;0.88;0.20;;;13.40;99.90;;;;;;4979714;28;20057;-85
2021/05/15 08:10:29;;;;;;;0.77;0.20;;;13.50;99.90;;;;;;4976863;28;20513;-85
2021/05/15 08:12:55;;;;;;;0.20;0.10;;;13.50;99.90;;;;;;4978521;28;20069;-85
2021/05/15 08:15:20;;;;;;;1.08;0.20;;;13.60;99.90;;;;;;4976415;28;20034;-85
2021/05/15 08:17:46;;;;;;;0.40;0.20;;;13.80;99.90;;;;;;4994945;28;20061;-85
2021/05/15 08:20:12;;;;;;;1.83;0.20;;;13.90;99.90;;;;;;4978216;28;20049;-86
2021/05/15 08:22:38;;;;;;;1.33;0.20;;;13.90;99.90;;;;;;4980271;28;20092;-87
2021/05/15 08:25:09;;;;;;;2.08;0.20;;;13.80;99.90;;;;;;4976859;28;20645;-86
2021/05/15 08:27:39;;;;;;;0.28;0.10;;;13.80;99.90;;;;;;4979017;28;20058;-86
2021/05/15 08:30:09;;;;;;;0.60;0.20;;;13.50;99.90;;;;;;4994646;28;20435;-85
2021/05/15 08:32:35;;;;;;;0.85;0.10;;;13.30;99.90;;;;;;4977294;28;20039;-86
2021/05/15 08:35:02;;;;;;;0.20;0.10;;;13.20;99.90;;;;;;4979857;28;20031;-85
2021/05/15 08:37:28;;;;;;;0.30;0.17;;;13.20;99.90;;;;;;4994063;28;20038;-87
2021/05/15 08:39:54;;;;;;;0.25;0.10;;;13.10;99.90;;;;;;4978385;28;20034;-87
2021/05/15 08:42:21;;;;;;;1.10;0.20;;;13.30;99.90;;;;;;4989949;28;20026;-87
2021/05/15 08:44:48;;;;;;;1.70;0.30;;;13.40;99.90;;;;;;4987921;28;20026;-86
2021/05/15 08:47:17;;;;;;;1.20;0.28;;;13.70;99.90;;;;;;4987114;28;20041;-86
2021/05/15 08:49:47;;;;;;;1.23;0.45;;;13.40;99.90;;;;;;4980327;28;20038;-87
2021/05/15 08:52:16;;;;;;;2.45;0.30;;;13.80;99.90;;;;;;4988759;28;20033;-86
2021/05/15 08:54:42;;;;;;;0.88;0.20;;;13.70;99.90;;;;;;4992184;28;20041;-86
2021/05/15 08:57:07;;;;;;;0.35;0.10;;;13.70;99.90;;;;;;4969551;28;20026;-87
2021/05/15 08:59:34;;;;;;;0.68;0.20;;;13.80;99.90;;;;;;4973148;28;20023;-86
2021/05/15 09:02:00;;;;;;;0.82;0.20;;;13.90;99.90;;;;;;4978882;28;20046;-86
2021/05/15 09:04:28;;;;;;;0.85;0.30;;;14.00;99.90;;;;;;4986242;28;20030;-89
2021/05/15 09:06:53;;;;;;;1.15;0.22;;;14.10;99.90;;;;;;4983623;28;20093;-86
2021/05/15 09:09:19;;;;;;;0.50;0.10;;;14.20;99.90;;;;;;4982587;28;20034;-87
2021/05/15 09:11:47;;;;;;;0.85;0.20;;;14.20;99.90;;;;;;4977991;28;20104;-86
2021/05/15 09:14:18;;;;;;;1.92;0.20;;;14.10;99.90;;;;;;4980988;28;20102;-88
2021/05/15 09:16:51;;;;;;;0.97;0.20;;;14.30;99.90;;;;;;4982477;28;20042;-87
2021/05/15 09:19:22;;;;;;;1.23;0.20;;;14.40;99.90;;;;;;4981567;28;20077;-87
2021/05/15 09:21:57;;;;;;;0.35;0.20;;;14.70;99.90;;;;;;4984469;28;20026;-85
2021/05/15 09:24:34;;;;;;;0.65;0.20;;;14.60;99.90;;;;;;5000068;28;20026;-85
2021/05/15 09:27:01;;;;;;;0.82;0.47;;;14.80;99.90;;;;;;4987133;28;20030;-87
2021/05/15 09:29:39;;;;;;;0.60;0.22;;;15.20;99.90;;;;;;4984678;28;20049;-85
2021/05/15 09:32:05;;;;;;;0.60;0.20;;;15.30;99.90;;;;;;4981851;28;20034;-85
2021/05/15 09:34:30;;;;;;;1.60;0.30;;;15.40;99.90;;;;;;4987368;28;20097;-87
2021/05/15 09:36:57;;;;;;;1.65;0.20;;;15.60;99.90;;;;;;4994297;28;20468;-87
2021/05/15 09:39:23;;;;;;;0.60;0.20;;;15.60;99.30;;;;;;4994601;28;20111;-87
2021/05/15 09:41:52;;;;;;;0.75;0.20;;;15.40;98.40;;;;;;4999391;28;20049;-87
2021/05/15 09:44:20;;;;;;;1.38;0.30;;;15.30;99.10;;;;;;5001509;28;20045;-87
2021/05/15 09:46:47;;;;;;;3.90;0.30;;;15.40;98.60;;;;;;4988739;28;20014;-86
2021/05/15 09:49:14;;;;;;;1.55;0.28;;;15.50;99.10;;;;;;4990554;28;20035;-85
2021/05/15 09:51:50;;;;;;;0.95;0.25;;;15.90;98.80;;;;;;4988978;28;20169;-86
2021/05/15 09:54:21;;;;;;;0.50;0.20;;;16.60;98.70;;;;;;4989535;28;20038;-85
2021/05/15 09:57:01;;;;;;;2.10;0.20;;;16.90;97.40;;;;;;5002045;28;20022;-85
2021/05/15 09:59:32;;;;;;;1.63;0.30;;;17.00;96.20;;;;;;4966179;28;20037;-84
2021/05/15 10:02:06;;;;;;;0.35;0.17;;;16.80;95.20;;;;;;4970594;28;20037;-85
2021/05/15 10:04:32;;;;;;;1.05;0.30;;;16.40;95.30;;;;;;4964658;28;20019;-85
2021/05/15 10:07:00;;;;;;;0.68;0.20;;;16.00;96.00;;;;;;4986657;28;20038;-85
2021/05/15 10:09:34;;;;;;;1.67;0.30;;;16.00;96.10;;;;;;4966051;28;20034;-84
2021/05/15 10:12:03;;;;;;;1.52;0.30;;;16.00;95.70;;;;;;4990311;28;20113;-85
2021/05/15 10:14:29;;;;;;;1.27;0.30;;;15.70;96.30;;;;;;4987955;28;20026;-86
2021/05/15 10:16:55;;;;;;;0.45;0.20;;;15.50;94.90;;;;;;4996117;28;20034;-85
2021/05/15 10:19:21;;;;;;;1.13;0.35;;;15.10;96.80;;;;;;4985658;28;20053;-86
2021/05/15 10:21:47;;;;;;;0.82;0.20;;;14.80;97.80;;;;;;5004960;28;20041;-85
2021/05/15 10:24:34;;;;;;;2.58;0.28;;;14.90;99.40;;;;;;4988819;28;20117;-85
2021/05/15 10:27:07;;;;;;;0.60;0.20;;;15.00;99.40;;;;;;4996311;28;20027;-85
2021/05/15 10:29:39;;;;;;;0.80;0.20;;;15.00;99.30;;;;;;5003843;28;20037;-85
2021/05/15 10:32:08;;;;;;;1.83;0.28;;;15.00;98.40;;;;;;4996103;28;20038;-85
2021/05/15 10:34:34;;;;;;;0.88;0.30;;;15.10;98.40;;;;;;4985036;28;20038;-86
2021/05/15 10:37:02;;;;;;;1.02;0.35;;;15.20;98.30;;;;;;4991037;28;20399;-86
2021/05/15 10:39:30;;;;;;;0.85;0.28;;;15.20;98.30;;;;;;4990326;28;20077;-86
2021/05/15 10:41:57;;;;;;;0.80;0.20;;;15.30;97.60;;;;;;4985609;28;20490;-85
2021/05/15 10:44:23;;;;;;;1.42;0.32;;;15.40;97.60;;;;;;4985487;28;20029;-85
2021/05/15 10:46:52;;;;;;;1.40;0.10;;;15.80;96.40;;;;;;5003684;28;20023;-86
2021/05/15 10:49:20;;;;;;;1.77;0.20;;;16.70;95.50;;;;;;4984211;28;20074;-86
2021/05/15 10:51:50;;;;;;;2.60;0.40;;;17.40;94.30;;;;;;4967277;28;20027;-86
2021/05/15 10:54:34;;;;;;;0.25;0.10;;;18.10;91.20;;;;;;4967052;28;20066;-87
2021/05/15 10:57:08;;;;;;;1.38;0.30;;;18.50;90.10;;;;;;4967014;28;20031;-86
2021/05/15 10:59:35;;;;;;;0.68;0.20;;;18.10;88.90;;;;;;4996430;28;20109;-87
2021/05/15 11:02:06;;;;;;;1.65;0.20;;;17.70;88.60;;;;;;4983300;28;20519;-85
2021/05/15 11:04:35;;;;;;;1.52;0.30;;;17.20;90.30;;;;;;4998908;28;20105;-84
2021/05/15 11:07:11;;;;;;;1.05;0.20;;;17.00;90.30;;;;;;4996020;28;20391;-89
2021/05/15 11:09:49;;;;;;;2.90;0.20;;;17.00;91.10;;;;;;4978749;28;20038;-85
2021/05/15 11:12:16;;;;;;;1.27;0.45;;;16.80;91.20;;;;;;4961466;28;20034;-86
2021/05/15 11:14:58;;;;;;;1.83;0.20;;;16.50;90.20;;;;;;4979770;28;20034;-84
2021/05/15 11:17:27;;;;;;;1.00;0.17;;;16.30;90.00;;;;;;4980380;28;20073;-86
2021/05/15 11:20:19;;;;;;;1.38;0.20;;;16.20;90.50;;;;;;4995275;28;20054;-85
2021/05/15 11:22:51;;;;;;;1.25;0.40;;;15.90;88.20;;;;;;4997376;28;20110;-85
2021/05/15 11:25:29;;;;;;;1.60;0.20;;;16.00;88.50;;;;;;4987105;28;20035;-86
2021/05/15 11:28:01;;;;;;;1.20;0.20;;;15.90;87.80;;;;;;4981094;28;20026;-85
2021/05/15 11:30:36;;;;;;;0.82;0.30;;;15.90;89.10;;;;;;4998881;28;20086;-86
2021/05/15 11:33:07;;;;;;;1.95;0.45;;;15.80;86.90;;;;;;4980608;28;20434;-85
2021/05/15 11:35:40;;;;;;;1.87;0.30;;;15.80;90.30;;;;;;4986021;28;20466;-86
2021/05/15 11:38:11;;;;;;;1.13;0.20;;;15.90;89.90;;;;;;4990686;28;20099;-85
2021/05/15 11:40:46;;;;;;;2.72;0.17;;;16.10;90.70;;;;;;4988383;28;20475;-86
2021/05/15 11:43:39;;;;;;;0.40;0.20;;;15.90;89.50;;;;;;4982637;28;20073;-85
2021/05/15 11:46:11;;;;;;;1.33;0.20;;;16.20;90.20;;;;;;4978685;28;20030;-85
2021/05/15 11:48:39;;;;;;;1.45;0.20;;;16.40;89.50;;;;;;4992311;28;20387;-86
2021/05/15 11:51:18;;;;;;;0.55;0.10;;;16.50;88.70;;;;;;4986833;28;20062;-86
2021/05/15 11:53:46;;;;;;;0.95;0.17;;;16.60;88.40;;;;;;4985959;28;20027;-87
2021/05/15 11:56:18;;;;;;;1.60;0.22;;;16.70;87.30;;;;;;4999189;28;20026;-87
2021/05/15 11:58:44;;;;;;;0.82;0.10;;;16.60;87.60;;;;;;4985429;28;20057;-91
2021/05/15 12:01:21;;;;;;;0.55;0.10;;;16.60;85.50;;;;;;4999515;28;20053;-86
2021/05/15 12:04:17;;;;;;;1.45;0.10;;;16.60;85.40;;;;;;5050543;23;20057;-86
2021/05/15 12:07:26;;;;;;;1.08;0.20;;;16.60;86.00;;;;;;5026983;28;20041;-87
2021/05/15 12:10:05;;;;;;;1.38;0.22;;;16.90;88.60;;;;;;4991013;28;20041;-86
2021/05/15 12:12:44;;;;;;;0.32;0.10;;;16.90;85.60;;;;;;5005085;28;20032;-86
2021/05/15 12:15:28;;;;;;;1.00;0.25;;;16.50;85.30;;;;;;4991415;28;20038;-86
2021/05/15 12:21:33;;;;;;;3.95;0.47;;;17.00;83.50;;;;;;5008030;28;20437;-86
2021/05/15 12:24:34;;;;;;;1.67;0.30;;;17.30;83.30;;;;;;5011349;28;20030;-86
2021/05/15 12:30:27;;;;;;;1.02;0.30;;;17.10;81.00;;;;;;4980213;28;20034;-86
2021/05/15 12:33:28;;;;;;;1.80;0.30;;;17.20;81.20;;;;;;4998257;28;20093;-86
2021/05/15 12:37:10;;;;;;;1.95;0.30;;;17.10;80.10;;;;;;4993793;28;20384;-86
2021/05/15 12:47:29;;;;;;;0.60;0.20;;;17.50;79.50;;;;;;4981402;28;20101;-86
2021/05/15 12:50:31;;;;;;;;;;;;;;;;;;;;;
2021/05/15 12:53:13;;;;;;;;;;;17.60;77.90;;;;;;4979615;28;20419;-86
2021/05/15 12:55:52;;;;;;;0.75;0.13;;;17.50;79.10;;;;;;4978384;28;19913;-87
2021/05/15 12:58:19;;;;;;;2.47;0.30;;;17.50;77.20;;;;;;4991240;28;20035;-88
2021/05/15 13:01:07;;;;;;;3.03;0.40;;;17.30;77.80;;;;;;4997522;28;20062;-85
2021/05/15 13:03:34;;;;;;;1.38;0.30;;;16.90;78.40;;;;;;5002283;28;20050;-86
2021/05/15 13:06:11;;;;;;;0.28;0.10;;;16.70;79.20;;;;;;5017391;28;20061;-87
2021/05/15 13:08:36;;;;;;;1.48;0.30;;;16.60;80.30;;;;;;4987323;28;20091;-87
2021/05/15 13:11:11;;;;;;;0.77;0.17;;;16.50;81.40;;;;;;5004870;28;20070;-86
2021/05/15 13:13:37;;;;;;;1.02;0.20;;;16.50;81.20;;;;;;4992737;28;20034;-87
2021/05/15 13:16:04;;;;;;;0.20;0.10;;;16.40;80.80;;;;;;5007468;28;20116;-86
2021/05/15 13:18:30;;;;;;;1.55;0.20;;;16.40;82.10;;;;;;4995871;28;20038;-87